createdAt,value
2018-09-15T00:00:30.773Z,15.80
2018-09-15T00:02:58.114Z,15.80
2018-09-15T00:05:25.622Z,15.80
2018-09-15T00:07:52.986Z,15.80
2018-09-15T00:10:20.375Z,15.60
2018-09-15T00:12:49.012Z,15.60
2018-09-15T00:15:17.566Z,15.50
2018-09-15T00:17:46.274Z,15.60
2018-09-15T00:20:13.690Z,15.50
2018-09-15T00:22:41.130Z,15.40
2018-09-15T00:25:08.792Z,15.40
2018-09-15T00:27:36.190Z,15.40
2018-09-15T00:30:03.702Z,15.30
2018-09-15T00:32:31.047Z,15.30
2018-09-15T00:34:58.436Z,15.30
2018-09-15T00:37:25.877Z,15.30
2018-09-15T00:39:53.384Z,15.20
2018-09-15T00:42:20.782Z,15.20
2018-09-15T00:44:48.171Z,15.30
2018-09-15T00:47:15.562Z,15.40
2018-09-15T00:49:42.973Z,15.40
2018-09-15T00:52:10.305Z,15.40
2018-09-15T00:54:37.665Z,15.40
2018-09-15T00:57:05.051Z,15.50
2018-09-15T00:59:32.526Z,15.50
2018-09-15T01:01:59.919Z,15.50
2018-09-15T01:04:27.357Z,15.60
2018-09-15T01:06:54.835Z,15.60
2018-09-15T01:09:22.247Z,15.60
2018-09-15T01:11:49.659Z,15.70
2018-09-15T01:14:17.088Z,15.80
2018-09-15T01:16:44.473Z,15.80
2018-09-15T01:19:11.861Z,15.90
2018-09-15T01:21:39.300Z,15.80
2018-09-15T01:24:07.831Z,15.80
2018-09-15T01:26:35.271Z,15.90
2018-09-15T01:29:02.734Z,15.90
2018-09-15T01:31:30.010Z,15.80
2018-09-15T01:33:57.455Z,15.80
2018-09-15T01:36:24.883Z,15.80
2018-09-15T01:38:52.309Z,15.80
2018-09-15T01:41:19.661Z,15.80
2018-09-15T01:43:47.392Z,15.90
2018-09-15T01:46:14.864Z,15.80
2018-09-15T01:48:42.344Z,15.70
2018-09-15T01:51:09.639Z,15.60
2018-09-15T01:53:37.016Z,15.60
2018-09-15T01:56:04.407Z,15.50
2018-09-15T01:58:31.776Z,15.40
2018-09-15T02:00:59.114Z,15.40
2018-09-15T02:03:27.761Z,15.50
2018-09-15T02:05:55.218Z,15.50
2018-09-15T02:08:22.614Z,15.60
2018-09-15T02:10:50.528Z,15.50
2018-09-15T02:13:17.918Z,15.60
2018-09-15T02:15:45.289Z,15.60
2018-09-15T02:18:12.708Z,15.60
2018-09-15T02:20:40.166Z,15.60
2018-09-15T02:23:07.561Z,15.60
2018-09-15T02:25:34.878Z,15.60
2018-09-15T02:28:02.266Z,15.60
2018-09-15T02:30:29.568Z,15.60
2018-09-15T02:32:57.109Z,15.60
2018-09-15T02:35:24.574Z,15.60
2018-09-15T02:37:52.059Z,15.60
2018-09-15T02:40:19.421Z,15.60
2018-09-15T02:42:46.782Z,15.60
2018-09-15T02:45:14.128Z,15.70
2018-09-15T02:47:41.951Z,15.60
2018-09-15T02:50:09.400Z,15.60
2018-09-15T02:52:36.734Z,15.60
2018-09-15T02:55:04.477Z,15.60
2018-09-15T02:57:31.810Z,15.70
2018-09-15T02:59:59.574Z,15.60
2018-09-15T03:02:27.072Z,15.60
2018-09-15T03:04:54.422Z,15.60
2018-09-15T03:07:21.817Z,15.50
2018-09-15T03:09:49.156Z,15.60
2018-09-15T03:12:16.770Z,15.50
2018-09-15T03:14:44.104Z,15.50
2018-09-15T03:17:11.538Z,15.60
2018-09-15T03:19:39.042Z,15.60
2018-09-15T03:22:06.580Z,15.60
2018-09-15T03:24:34.022Z,15.60
2018-09-15T03:27:01.402Z,15.70
2018-09-15T03:29:28.869Z,15.60
2018-09-15T03:31:56.309Z,15.70
2018-09-15T03:34:23.704Z,15.60
2018-09-15T03:36:51.098Z,15.60
2018-09-15T03:39:18.518Z,15.60
2018-09-15T03:41:46.145Z,15.70
2018-09-15T03:44:13.346Z,15.60
2018-09-15T03:46:40.682Z,15.60
2018-09-15T03:49:08.107Z,15.60
2018-09-15T03:51:35.547Z,15.60
2018-09-15T03:54:02.981Z,15.70
2018-09-15T03:56:30.381Z,15.70
2018-09-15T03:58:57.709Z,15.60
2018-09-15T04:01:25.071Z,15.60
2018-09-15T04:03:52.381Z,15.60
2018-09-15T04:06:19.713Z,15.60
2018-09-15T04:08:47.090Z,15.60
2018-09-15T04:11:14.481Z,15.60
2018-09-15T04:13:41.861Z,15.60
2018-09-15T04:16:09.229Z,15.50
2018-09-15T04:18:36.649Z,15.40
2018-09-15T04:21:04.047Z,15.40
2018-09-15T04:23:31.429Z,15.40
2018-09-15T04:25:58.830Z,15.40
2018-09-15T04:28:26.306Z,15.30
2018-09-15T04:30:53.620Z,15.10
2018-09-15T04:33:20.964Z,15.10
2018-09-15T04:35:48.278Z,14.90
2018-09-15T04:38:15.702Z,14.90
2018-09-15T04:40:43.054Z,14.90
2018-09-15T04:43:10.388Z,14.80
2018-09-15T04:45:37.782Z,14.80
2018-09-15T04:48:05.122Z,14.90
2018-09-15T04:50:32.455Z,14.90
2018-09-15T04:52:59.889Z,15.00
2018-09-15T04:55:27.352Z,14.90
2018-09-15T04:57:54.784Z,14.90
2018-09-15T05:00:22.120Z,15.00
2018-09-15T05:02:49.631Z,15.00
2018-09-15T05:05:16.958Z,15.00
2018-09-15T05:07:44.448Z,14.90
2018-09-15T05:10:11.778Z,14.90
2018-09-15T05:12:39.257Z,14.90
2018-09-15T05:15:06.626Z,14.90
2018-09-15T05:17:33.978Z,14.80
2018-09-15T05:20:01.377Z,14.80
2018-09-15T05:22:28.800Z,14.70
2018-09-15T05:24:56.206Z,14.70
2018-09-15T05:27:23.486Z,14.70
2018-09-15T05:29:50.868Z,14.60
2018-09-15T05:32:18.334Z,14.50
2018-09-15T05:34:45.678Z,14.50
2018-09-15T05:37:13.070Z,14.40
2018-09-15T05:39:40.444Z,14.20
2018-09-15T05:42:07.802Z,14.30
2018-09-15T05:44:35.250Z,14.20
2018-09-15T05:47:02.615Z,14.30
2018-09-15T05:49:30.015Z,14.40
2018-09-15T05:51:57.428Z,14.60
2018-09-15T05:54:24.829Z,14.60
2018-09-15T05:56:52.254Z,14.70
2018-09-15T05:59:19.614Z,14.80
2018-09-15T06:01:47.088Z,14.80
2018-09-15T06:04:14.424Z,14.80
2018-09-15T06:06:41.812Z,14.90
2018-09-15T06:09:10.565Z,14.90
2018-09-15T06:11:37.981Z,14.90
2018-09-15T06:14:05.366Z,15.00
2018-09-15T06:16:32.762Z,15.10
2018-09-15T06:19:00.066Z,15.00
2018-09-15T06:21:27.406Z,15.10
2018-09-15T06:23:54.876Z,15.20
2018-09-15T06:26:22.337Z,15.30
2018-09-15T06:28:49.773Z,15.30
2018-09-15T06:31:17.110Z,15.40
2018-09-15T06:33:44.513Z,15.60
2018-09-15T06:36:11.939Z,15.70
2018-09-15T06:38:39.327Z,15.90
2018-09-15T06:41:06.798Z,16.10
2018-09-15T06:43:34.291Z,16.30
2018-09-15T06:46:01.669Z,16.40
2018-09-15T06:48:29.110Z,16.50
2018-09-15T06:50:56.751Z,16.60
2018-09-15T06:53:24.102Z,16.70
2018-09-15T06:55:51.460Z,16.80
2018-09-15T06:58:18.897Z,16.90
2018-09-15T07:00:46.250Z,16.90
2018-09-15T07:03:13.651Z,17.00
2018-09-15T07:05:41.336Z,17.10
2018-09-15T07:08:08.771Z,17.10
2018-09-15T07:10:36.174Z,17.30
2018-09-15T07:13:03.574Z,17.50
2018-09-15T07:15:31.011Z,17.50
2018-09-15T07:17:58.400Z,17.60
2018-09-15T07:20:25.998Z,17.40
2018-09-15T07:22:53.467Z,17.50
2018-09-15T07:25:21.182Z,17.60
2018-09-15T07:27:48.682Z,17.70
2018-09-15T07:30:16.141Z,17.70
2018-09-15T07:32:43.568Z,17.80
2018-09-15T07:35:11.007Z,18.10
2018-09-15T07:37:38.461Z,18.20
2018-09-15T07:40:05.931Z,18.30
2018-09-15T07:42:33.334Z,18.30
2018-09-15T07:45:00.833Z,18.40
2018-09-15T07:47:28.333Z,18.60
2018-09-15T07:49:55.771Z,18.60
2018-09-15T07:52:23.667Z,18.90
2018-09-15T07:54:51.101Z,19.00
2018-09-15T07:57:18.527Z,18.70
2018-09-15T07:59:45.838Z,18.80
2018-09-15T08:02:20.853Z,18.80
2018-09-15T08:04:48.930Z,19.10
2018-09-15T08:07:16.691Z,19.10
2018-09-15T08:09:44.733Z,19.00
2018-09-15T08:12:12.065Z,18.80
2018-09-15T08:14:41.015Z,19.10
2018-09-15T08:17:08.471Z,19.20
2018-09-15T08:19:35.871Z,19.20
2018-09-15T08:22:03.311Z,19.20
2018-09-15T08:24:31.164Z,19.30
2018-09-15T08:26:58.928Z,19.50
2018-09-15T08:29:26.470Z,19.70
2018-09-15T08:31:54.651Z,19.90
2018-09-15T08:34:22.979Z,19.90
2018-09-15T08:36:51.372Z,20.00
2018-09-15T08:39:18.974Z,20.00
2018-09-15T08:41:46.466Z,19.70
2018-09-15T08:44:13.850Z,19.80
2018-09-15T08:46:41.266Z,20.00
2018-09-15T08:49:08.870Z,20.20
2018-09-15T08:51:36.226Z,20.40
2018-09-15T08:54:03.614Z,20.30
2018-09-15T08:56:30.974Z,20.40
2018-09-15T08:58:58.679Z,20.40
2018-09-15T09:01:26.094Z,20.60
2018-09-15T09:03:53.489Z,20.70
2018-09-15T09:06:20.891Z,20.80
2018-09-15T09:08:48.251Z,21.00
2018-09-15T09:11:16.001Z,21.10
2018-09-15T09:13:43.582Z,21.10
2018-09-15T09:16:11.017Z,21.30
2018-09-15T09:18:38.430Z,21.40
2018-09-15T09:21:05.815Z,21.30
2018-09-15T09:23:33.288Z,21.40
2018-09-15T09:26:00.789Z,21.60
2018-09-15T09:28:28.094Z,21.70
2018-09-15T09:30:55.490Z,22.00
2018-09-15T09:33:22.825Z,21.60
2018-09-15T09:35:50.207Z,21.70
2018-09-15T09:38:17.588Z,22.10
2018-09-15T09:40:44.966Z,22.30
2018-09-15T09:43:12.367Z,22.30
2018-09-15T09:45:39.922Z,22.30
2018-09-15T09:48:07.435Z,22.30
2018-09-15T09:50:34.805Z,22.40
2018-09-15T09:53:02.233Z,22.60
2018-09-15T09:55:29.663Z,22.50
2018-09-15T09:57:57.117Z,22.60
2018-09-15T10:00:30.383Z,22.80
2018-09-15T10:02:57.779Z,22.90
2018-09-15T10:05:25.305Z,22.80
2018-09-15T10:07:52.659Z,22.90
2018-09-15T10:10:20.085Z,22.80
2018-09-15T10:12:47.486Z,22.90
2018-09-15T10:15:14.889Z,22.60
2018-09-15T10:17:42.359Z,22.50
2018-09-15T10:20:09.881Z,22.50
2018-09-15T10:22:37.291Z,22.40
2018-09-15T10:25:04.766Z,22.20
2018-09-15T10:27:32.184Z,22.50
2018-09-15T10:29:59.622Z,22.70
2018-09-15T10:32:26.978Z,22.90
2018-09-15T10:34:54.572Z,23.10
2018-09-15T10:37:21.993Z,23.20
2018-09-15T10:39:49.457Z,23.40
2018-09-15T10:42:17.098Z,23.30
2018-09-15T10:44:44.532Z,23.60
2018-09-15T10:47:11.889Z,24.00
2018-09-15T10:49:39.341Z,24.00
2018-09-15T10:52:06.810Z,23.40
2018-09-15T10:54:34.310Z,22.70
2018-09-15T10:57:01.818Z,22.50
2018-09-15T10:59:29.327Z,22.10
2018-09-15T11:01:56.734Z,22.20
2018-09-15T11:04:24.166Z,22.10
2018-09-15T11:06:51.614Z,22.00
2018-09-15T11:09:19.069Z,21.70
2018-09-15T11:11:46.514Z,22.30
2018-09-15T11:14:13.878Z,22.80
2018-09-15T11:16:41.423Z,23.20
2018-09-15T11:19:08.859Z,23.50
2018-09-15T11:21:36.354Z,23.90
2018-09-15T11:24:03.797Z,24.30
2018-09-15T11:26:31.258Z,24.30
2018-09-15T11:28:58.702Z,24.40
2018-09-15T11:31:26.201Z,24.60
2018-09-15T11:33:53.656Z,24.60
2018-09-15T11:36:21.062Z,23.90
2018-09-15T11:38:48.574Z,23.80
2018-09-15T11:41:16.066Z,24.50
2018-09-15T11:43:43.482Z,25.10
2018-09-15T11:46:10.967Z,25.30
2018-09-15T11:48:38.390Z,25.50
2018-09-15T11:51:05.857Z,24.70
2018-09-15T11:53:33.330Z,24.50
2018-09-15T11:56:00.790Z,24.50
2018-09-15T11:58:28.217Z,24.40
2018-09-15T12:00:57.981Z,24.50
2018-09-15T12:03:25.392Z,24.60
2018-09-15T12:05:52.826Z,24.10
2018-09-15T12:08:20.407Z,23.60
2018-09-15T12:10:47.790Z,23.00
2018-09-15T12:13:15.135Z,22.90
2018-09-15T12:15:42.563Z,23.00
2018-09-15T12:18:09.912Z,22.70
2018-09-15T12:20:37.486Z,22.80
2018-09-15T12:23:04.892Z,23.20
2018-09-15T12:25:32.283Z,23.50
2018-09-15T12:27:59.842Z,24.00
2018-09-15T12:30:27.224Z,24.20
2018-09-15T12:32:54.615Z,24.50
2018-09-15T12:35:22.320Z,24.30
2018-09-15T12:37:51.485Z,24.20
2018-09-15T12:40:18.896Z,24.10
2018-09-15T12:42:46.459Z,24.20
2018-09-15T12:45:14.109Z,24.20
2018-09-15T12:47:41.358Z,24.50
2018-09-15T12:50:08.806Z,24.40
2018-09-15T12:52:36.282Z,23.80
2018-09-15T12:55:05.349Z,23.70
2018-09-15T12:57:32.757Z,24.10
2018-09-15T13:00:00.195Z,24.20
2018-09-15T13:02:27.749Z,24.10
2018-09-15T13:04:55.167Z,24.50
2018-09-15T13:07:22.677Z,24.70
2018-09-15T13:09:50.227Z,25.00
2018-09-15T13:12:17.704Z,25.30
2018-09-15T13:14:45.022Z,25.40
2018-09-15T13:17:12.465Z,25.30
2018-09-15T13:19:39.886Z,24.90
2018-09-15T13:22:07.398Z,24.40
2018-09-15T13:24:34.820Z,24.20
2018-09-15T13:27:02.201Z,24.50
2018-09-15T13:29:29.736Z,24.80
2018-09-15T13:31:57.175Z,24.60
2018-09-15T13:34:24.570Z,23.90
2018-09-15T13:36:52.034Z,24.00
2018-09-15T13:39:19.456Z,24.10
2018-09-15T13:41:46.750Z,24.60
2018-09-15T13:44:14.270Z,25.10
2018-09-15T13:46:41.664Z,25.50
2018-09-15T13:49:09.111Z,26.00
2018-09-15T13:51:36.526Z,25.70
2018-09-15T13:54:03.997Z,25.90
2018-09-15T13:56:31.407Z,25.70
2018-09-15T13:58:58.858Z,25.40
2018-09-15T14:01:26.187Z,25.20
2018-09-15T14:03:53.527Z,25.00
2018-09-15T14:06:20.978Z,24.40
2018-09-15T14:08:48.569Z,24.20
2018-09-15T14:11:16.162Z,24.40
2018-09-15T14:13:43.470Z,23.80
2018-09-15T14:16:10.905Z,23.60
2018-09-15T14:18:38.278Z,23.90
2018-09-15T14:21:05.676Z,24.40
2018-09-15T14:23:33.001Z,24.40
2018-09-15T14:26:00.390Z,24.40
2018-09-15T14:28:27.877Z,24.40
2018-09-15T14:30:55.199Z,24.10
2018-09-15T14:33:22.639Z,24.00
2018-09-15T14:35:50.121Z,24.00
2018-09-15T14:38:17.499Z,24.60
2018-09-15T14:40:44.919Z,25.10
2018-09-15T14:43:12.295Z,26.20
2018-09-15T14:45:39.713Z,27.30
2018-09-15T14:48:07.170Z,28.20
2018-09-15T14:50:34.645Z,28.00
2018-09-15T14:53:02.365Z,27.30
2018-09-15T14:55:29.790Z,27.00
2018-09-15T14:57:57.362Z,26.10
2018-09-15T15:00:24.839Z,25.30
2018-09-15T15:02:54.887Z,23.80
2018-09-15T15:05:22.342Z,23.40
2018-09-15T15:07:50.180Z,23.40
2018-09-15T15:10:17.719Z,23.30
2018-09-15T15:12:45.139Z,23.00
2018-09-15T15:15:12.503Z,23.10
2018-09-15T15:17:39.826Z,22.60
2018-09-15T15:20:07.236Z,22.30
2018-09-15T15:22:34.695Z,22.30
2018-09-15T15:25:03.531Z,22.40
2018-09-15T15:27:30.922Z,22.50
2018-09-15T15:29:58.326Z,22.50
2018-09-15T15:32:25.663Z,22.40
2018-09-15T15:34:53.129Z,22.40
2018-09-15T15:37:20.542Z,22.40
2018-09-15T15:39:47.971Z,22.20
2018-09-15T15:42:15.657Z,22.20
2018-09-15T15:44:43.084Z,22.20
2018-09-15T15:47:10.514Z,22.00
2018-09-15T15:49:37.934Z,22.10
2018-09-15T15:52:05.479Z,22.00
2018-09-15T15:54:32.974Z,21.90
2018-09-15T15:57:00.510Z,22.00
2018-09-15T15:59:27.888Z,21.80
2018-09-15T16:01:55.663Z,21.70
2018-09-15T16:04:24.062Z,21.70
2018-09-15T16:06:51.502Z,21.80
2018-09-15T16:09:18.958Z,21.70
2018-09-15T16:11:46.370Z,21.70
2018-09-15T16:14:13.773Z,21.70
2018-09-15T16:16:41.303Z,21.50
2018-09-15T16:19:08.713Z,21.20
2018-09-15T16:21:36.094Z,21.10
2018-09-15T16:24:03.870Z,21.00
2018-09-15T16:26:31.334Z,21.00
2018-09-15T16:28:58.713Z,20.80
2018-09-15T16:31:26.198Z,20.80
2018-09-15T16:33:53.651Z,20.70
2018-09-15T16:36:21.070Z,20.80
2018-09-15T16:38:48.502Z,20.70
2018-09-15T16:41:15.927Z,20.70
2018-09-15T16:43:43.351Z,20.60
2018-09-15T16:46:10.849Z,20.50
2018-09-15T16:48:38.120Z,20.40
2018-09-15T16:51:05.745Z,20.40
2018-09-15T16:53:33.249Z,20.30
2018-09-15T16:56:00.702Z,20.20
2018-09-15T16:58:28.177Z,20.10
2018-09-15T17:00:55.681Z,20.00
2018-09-15T17:03:23.081Z,19.90
2018-09-15T17:05:50.428Z,19.80
2018-09-15T17:08:17.783Z,19.80
2018-09-15T17:10:45.225Z,19.70
2018-09-15T17:13:12.725Z,19.70
2018-09-15T17:15:40.161Z,19.60
2018-09-15T17:18:08.098Z,19.60
2018-09-15T17:20:35.443Z,19.60
2018-09-15T17:23:02.923Z,19.50
2018-09-15T17:25:30.432Z,19.30
2018-09-15T17:27:57.933Z,19.30
2018-09-15T17:30:25.377Z,19.10
2018-09-15T17:32:52.813Z,19.10
2018-09-15T17:35:20.261Z,19.00
2018-09-15T17:37:47.657Z,18.90
2018-09-15T17:40:15.077Z,18.80
2018-09-15T17:42:42.768Z,18.70
2018-09-15T17:45:10.647Z,18.60
2018-09-15T17:47:38.371Z,18.60
2018-09-15T17:50:05.942Z,18.50
2018-09-15T17:52:33.385Z,18.40
2018-09-15T17:55:00.872Z,18.30
2018-09-15T17:57:28.281Z,18.20
2018-09-15T17:59:55.709Z,18.10
2018-09-15T18:02:23.083Z,18.00
2018-09-15T18:04:50.430Z,17.90
2018-09-15T18:07:17.899Z,17.80
2018-09-15T18:09:45.760Z,17.80
2018-09-15T18:12:13.107Z,17.70
2018-09-15T18:14:40.519Z,17.60
2018-09-15T18:17:08.007Z,17.60
2018-09-15T18:19:35.503Z,17.60
2018-09-15T18:22:03.075Z,17.40
2018-09-15T18:24:30.448Z,17.30
2018-09-15T18:26:57.851Z,17.30
2018-09-15T18:29:25.323Z,17.20
2018-09-15T18:31:52.763Z,17.10
2018-09-15T18:34:20.170Z,17.00
2018-09-15T18:36:47.819Z,17.00
2018-09-15T18:39:15.054Z,17.00
2018-09-15T18:41:42.467Z,16.90
2018-09-15T18:44:09.971Z,16.80
2018-09-15T18:46:37.441Z,16.70
2018-09-15T18:49:05.202Z,16.70
2018-09-15T18:51:32.704Z,16.70
2018-09-15T18:54:00.142Z,16.70
2018-09-15T18:56:27.653Z,16.60
2018-09-15T18:58:55.027Z,16.60
2018-09-15T19:01:22.573Z,16.40
2018-09-15T19:03:49.922Z,16.30
2018-09-15T19:06:17.289Z,16.20
2018-09-15T19:08:44.692Z,16.00
2018-09-15T19:11:12.180Z,16.00
2018-09-15T19:13:39.563Z,15.90
2018-09-15T19:16:07.232Z,15.90
2018-09-15T19:18:34.723Z,15.70
2018-09-15T19:21:02.202Z,15.80
2018-09-15T19:23:29.692Z,15.60
2018-09-15T19:25:57.164Z,15.60
2018-09-15T19:28:24.537Z,15.40
2018-09-15T19:30:52.003Z,15.30
2018-09-15T19:33:19.454Z,15.20
2018-09-15T19:35:46.860Z,15.20
2018-09-15T19:38:14.355Z,15.20
2018-09-15T19:40:41.925Z,15.20
2018-09-15T19:43:09.491Z,15.10
2018-09-15T19:45:37.417Z,15.00
2018-09-15T19:48:04.806Z,15.00
2018-09-15T19:50:32.264Z,14.90
2018-09-15T19:53:00.418Z,14.90
2018-09-15T19:55:30.342Z,14.90
2018-09-15T19:57:58.576Z,14.90
2018-09-15T20:00:26.009Z,14.90
2018-09-15T20:02:53.499Z,14.80
2018-09-15T20:05:20.941Z,14.70
2018-09-15T20:07:48.254Z,14.50
2018-09-15T20:10:15.689Z,14.40
2018-09-15T20:12:43.165Z,14.30
2018-09-15T20:15:30.709Z,14.30
2018-09-15T20:17:57.848Z,14.30
2018-09-15T20:20:24.613Z,14.30
2018-09-15T20:22:53.534Z,14.30
2018-09-15T20:25:20.954Z,14.30
2018-09-15T20:27:48.375Z,14.20
2018-09-15T20:30:15.792Z,14.00
2018-09-15T20:32:43.444Z,13.90
2018-09-15T20:35:10.762Z,13.80
2018-09-15T20:37:38.791Z,13.70
2018-09-15T20:40:06.904Z,13.60
2018-09-15T20:42:34.207Z,13.50
2018-09-15T20:45:01.731Z,13.50
2018-09-15T20:47:29.346Z,13.40
2018-09-15T20:49:56.726Z,13.40
2018-09-15T20:52:24.032Z,13.30
2018-09-15T20:54:51.404Z,13.30
2018-09-15T20:57:18.844Z,13.40
2018-09-15T20:59:46.206Z,13.40
2018-09-15T21:02:13.755Z,13.40
2018-09-15T21:04:41.623Z,13.40
2018-09-15T21:07:08.994Z,13.40
2018-09-15T21:09:36.365Z,13.40
2018-09-15T21:12:03.873Z,13.30
2018-09-15T21:14:31.318Z,13.20
2018-09-15T21:16:58.780Z,13.20
2018-09-15T21:19:26.192Z,13.10
2018-09-15T21:21:53.642Z,13.00
2018-09-15T21:24:21.131Z,12.90
2018-09-15T21:26:48.564Z,12.90
2018-09-15T21:29:16.029Z,12.90
2018-09-15T21:31:43.314Z,12.80
2018-09-15T21:34:11.583Z,12.90
2018-09-15T21:36:39.033Z,12.90
2018-09-15T21:39:08.985Z,12.80
2018-09-15T21:41:37.864Z,12.80
2018-09-15T21:44:05.698Z,12.80
2018-09-15T21:46:33.838Z,12.90
2018-09-15T21:49:02.476Z,13.00
2018-09-15T21:51:31.611Z,12.90
2018-09-15T21:53:59.745Z,12.70
2018-09-15T21:56:28.030Z,12.60
2018-09-15T21:58:56.307Z,12.60
2018-09-15T22:01:23.698Z,12.60
2018-09-15T22:03:56.909Z,12.50
2018-09-15T22:06:24.319Z,12.40
2018-09-15T22:08:51.817Z,12.40
2018-09-15T22:11:19.217Z,12.30
2018-09-15T22:13:46.991Z,12.30
2018-09-15T22:16:14.411Z,12.30
2018-09-15T22:18:41.819Z,12.20
2018-09-15T22:21:10.085Z,12.20
2018-09-15T22:23:37.377Z,12.10
2018-09-15T22:26:05.007Z,11.90
2018-09-15T22:28:33.050Z,12.00
2018-09-15T22:31:00.458Z,12.00
2018-09-15T22:33:27.926Z,11.90
2018-09-15T22:35:55.417Z,11.90
2018-09-15T22:38:22.917Z,11.90
2018-09-15T22:40:50.248Z,12.00
2018-09-15T22:43:17.774Z,12.20
2018-09-15T22:45:45.245Z,12.10
2018-09-15T22:48:13.120Z,12.00
2018-09-15T22:50:40.534Z,12.00
2018-09-15T22:53:08.089Z,12.00
2018-09-15T22:55:35.459Z,12.00
2018-09-15T22:58:02.956Z,12.10
2018-09-15T23:00:30.479Z,12.00
2018-09-15T23:02:58.101Z,11.80
2018-09-15T23:05:25.505Z,11.80
2018-09-15T23:07:53.095Z,11.80
2018-09-15T23:10:20.613Z,11.60
2018-09-15T23:12:48.201Z,11.60
2018-09-15T23:15:15.547Z,11.60
2018-09-15T23:17:42.995Z,11.40
2018-09-15T23:20:10.347Z,11.40
2018-09-15T23:22:37.785Z,11.50
2018-09-15T23:25:05.211Z,11.40
2018-09-15T23:27:32.531Z,11.40
2018-09-15T23:29:59.994Z,11.40
2018-09-15T23:32:27.622Z,11.30
2018-09-15T23:34:55.103Z,11.20
2018-09-15T23:37:22.542Z,11.10
2018-09-15T23:39:50.361Z,11.10
2018-09-15T23:42:17.822Z,11.20
2018-09-15T23:44:45.212Z,11.20
2018-09-15T23:47:12.695Z,11.30
2018-09-15T23:49:40.220Z,11.20
2018-09-15T23:52:07.566Z,11.20
2018-09-15T23:54:35.011Z,11.20
2018-09-15T23:57:02.478Z,11.10
2018-09-15T23:59:29.898Z,11.20
